sensor_id;sensor_type;location;lat;lon;timestamp;P1;durP1;ratioP1;P2;durP2;ratioP2
21099;SDS011;10708;50.824;4.408;2023-05-29T00:02:40;128.68;;;120.97;;
21099;SDS011;10708;50.824;4.408;2023-05-29T00:07:44;291.27;;;274.20;;
21099;SDS011;10708;50.824;4.408;2023-05-29T00:12:47;290.13;;;272.00;;
21099;SDS011;10708;50.824;4.408;2023-05-29T00:17:49;377.00;;;354.58;;
21099;SDS011;10708;50.824;4.408;2023-05-29T00:22:51;212.27;;;199.25;;
21099;SDS011;10708;50.824;4.408;2023-05-29T00:27:55;111.88;;;105.22;;
21099;SDS011;10708;50.824;4.408;2023-05-29T00:32:57;92.53;;;86.53;;
21099;SDS011;10708;50.824;4.408;2023-05-29T00:37:59;126.10;;;118.35;;
21099;SDS011;10708;50.824;4.408;2023-05-29T00:43:03;149.20;;;139.63;;
21099;SDS011;10708;50.824;4.408;2023-05-29T00:48:05;100.65;;;94.25;;
21099;SDS011;10708;50.824;4.408;2023-05-29T00:53:08;57.90;;;53.80;;
21099;SDS011;10708;50.824;4.408;2023-05-29T00:58:12;105.90;;;98.95;;
21099;SDS011;10708;50.824;4.408;2023-05-29T01:03:14;1999.90;;;699.23;;
21099;SDS011;10708;50.824;4.408;2023-05-29T01:08:17;85.55;;;80.20;;
21099;SDS011;10708;50.824;4.408;2023-05-29T01:13:21;130.80;;;123.28;;
21099;SDS011;10708;50.824;4.408;2023-05-29T01:18:31;90.50;;;85.00;;
21099;SDS011;10708;50.824;4.408;2023-05-29T01:23:51;67.17;;;61.60;;
21099;SDS011;10708;50.824;4.408;2023-05-29T01:29:00;22.20;;;15.95;;
21099;SDS011;10708;50.824;4.408;2023-05-29T01:34:03;17.27;;;15.13;;
21099;SDS011;10708;50.824;4.408;2023-05-29T01:39:05;16.83;;;13.20;;
21099;SDS011;10708;50.824;4.408;2023-05-29T01:44:09;43.63;;;40.23;;
21099;SDS011;10708;50.824;4.408;2023-05-29T01:49:12;512.97;;;80.88;;
21099;SDS011;10708;50.824;4.408;2023-05-29T01:54:16;61.45;;;57.13;;
21099;SDS011;10708;50.824;4.408;2023-05-29T01:59:19;232.30;;;46.38;;
21099;SDS011;10708;50.824;4.408;2023-05-29T02:04:23;18.77;;;13.30;;
21099;SDS011;10708;50.824;4.408;2023-05-29T02:09:25;231.43;;;64.30;;
21099;SDS011;10708;50.824;4.408;2023-05-29T02:14:29;33.08;;;30.00;;
21099;SDS011;10708;50.824;4.408;2023-05-29T02:19:32;15.37;;;11.67;;
21099;SDS011;10708;50.824;4.408;2023-05-29T02:24:34;35.33;;;32.40;;
21099;SDS011;10708;50.824;4.408;2023-05-29T02:29:37;83.15;;;77.15;;
21099;SDS011;10708;50.824;4.408;2023-05-29T02:34:39;88.67;;;29.90;;
21099;SDS011;10708;50.824;4.408;2023-05-29T02:39:41;159.67;;;74.20;;
21099;SDS011;10708;50.824;4.408;2023-05-29T02:44:44;146.33;;;99.07;;
21099;SDS011;10708;50.824;4.408;2023-05-29T02:49:46;24.83;;;21.73;;
21099;SDS011;10708;50.824;4.408;2023-05-29T02:54:48;503.57;;;58.03;;
21099;SDS011;10708;50.824;4.408;2023-05-29T02:59:51;34.87;;;31.90;;
21099;SDS011;10708;50.824;4.408;2023-05-29T03:04:55;312.00;;;66.33;;
21099;SDS011;10708;50.824;4.408;2023-05-29T03:09:57;54.13;;;20.57;;
21099;SDS011;10708;50.824;4.408;2023-05-29T03:15:00;45.03;;;41.63;;
21099;SDS011;10708;50.824;4.408;2023-05-29T03:20:02;236.10;;;64.30;;
21099;SDS011;10708;50.824;4.408;2023-05-29T03:25:08;1675.63;;;280.83;;
21099;SDS011;10708;50.824;4.408;2023-05-29T03:30:12;39.10;;;36.03;;
21099;SDS011;10708;50.824;4.408;2023-05-29T03:35:14;144.80;;;136.10;;
21099;SDS011;10708;50.824;4.408;2023-05-29T03:40:16;43.60;;;40.57;;
21099;SDS011;10708;50.824;4.408;2023-05-29T03:45:20;302.20;;;66.93;;
21099;SDS011;10708;50.824;4.408;2023-05-29T03:50:22;58.43;;;52.33;;
21099;SDS011;10708;50.824;4.408;2023-05-29T03:55:25;54.87;;;30.17;;
21099;SDS011;10708;50.824;4.408;2023-05-29T04:00:29;26.73;;;24.27;;
21099;SDS011;10708;50.824;4.408;2023-05-29T04:05:31;63.17;;;38.67;;
21099;SDS011;10708;50.824;4.408;2023-05-29T04:10:33;96.27;;;53.60;;
21099;SDS011;10708;50.824;4.408;2023-05-29T04:15:37;93.90;;;59.53;;
21099;SDS011;10708;50.824;4.408;2023-05-29T04:20:39;313.83;;;67.93;;
21099;SDS011;10708;50.824;4.408;2023-05-29T04:25:41;93.07;;;83.70;;
21099;SDS011;10708;50.824;4.408;2023-05-29T04:30:45;277.90;;;76.07;;
21099;SDS011;10708;50.824;4.408;2023-05-29T04:35:49;323.17;;;54.10;;
21099;SDS011;10708;50.824;4.408;2023-05-29T04:40:51;291.13;;;97.87;;
21099;SDS011;10708;50.824;4.408;2023-05-29T04:45:58;61.53;;;57.63;;
21099;SDS011;10708;50.824;4.408;2023-05-29T04:51:02;40.03;;;36.60;;
21099;SDS011;10708;50.824;4.408;2023-05-29T04:56:05;58.90;;;55.40;;
21099;SDS011;10708;50.824;4.408;2023-05-29T05:01:08;46.10;;;42.77;;
21099;SDS011;10708;50.824;4.408;2023-05-29T05:06:14;42.03;;;39.00;;
21099;SDS011;10708;50.824;4.408;2023-05-29T05:11:17;60.07;;;56.07;;
21099;SDS011;10708;50.824;4.408;2023-05-29T05:16:22;64.50;;;59.93;;
21099;SDS011;10708;50.824;4.408;2023-05-29T05:21:24;50.80;;;47.57;;
21099;SDS011;10708;50.824;4.408;2023-05-29T05:26:26;57.47;;;53.40;;
21099;SDS011;10708;50.824;4.408;2023-05-29T05:31:29;190.57;;;64.83;;
21099;SDS011;10708;50.824;4.408;2023-05-29T05:36:31;23.33;;;21.30;;
21099;SDS011;10708;50.824;4.408;2023-05-29T05:41:33;264.97;;;118.20;;
21099;SDS011;10708;50.824;4.408;2023-05-29T05:46:36;496.97;;;121.50;;
21099;SDS011;10708;50.824;4.408;2023-05-29T05:51:38;50.43;;;46.93;;
21099;SDS011;10708;50.824;4.408;2023-05-29T05:56:40;60.63;;;56.30;;
21099;SDS011;10708;50.824;4.408;2023-05-29T06:01:44;57.07;;;53.17;;
21099;SDS011;10708;50.824;4.408;2023-05-29T06:06:46;51.60;;;47.70;;
21099;SDS011;10708;50.824;4.408;2023-05-29T06:11:48;221.50;;;152.80;;
21099;SDS011;10708;50.824;4.408;2023-05-29T06:16:51;37.67;;;34.77;;
21099;SDS011;10708;50.824;4.408;2023-05-29T06:21:53;96.00;;;90.07;;
21099;SDS011;10708;50.824;4.408;2023-05-29T06:26:55;55.13;;;51.17;;
21099;SDS011;10708;50.824;4.408;2023-05-29T06:31:59;213.37;;;201.70;;
21099;SDS011;10708;50.824;4.408;2023-05-29T06:37:01;188.13;;;94.70;;
21099;SDS011;10708;50.824;4.408;2023-05-29T06:42:03;84.37;;;79.23;;
21099;SDS011;10708;50.824;4.408;2023-05-29T06:47:06;112.85;;;105.10;;
21099;SDS011;10708;50.824;4.408;2023-05-29T06:52:08;140.65;;;128.68;;
21099;SDS011;10708;50.824;4.408;2023-05-29T06:57:10;212.63;;;199.93;;
21099;SDS011;10708;50.824;4.408;2023-05-29T07:02:14;181.25;;;171.25;;
21099;SDS011;10708;50.824;4.408;2023-05-29T07:07:16;243.10;;;230.02;;
21099;SDS011;10708;50.824;4.408;2023-05-29T07:12:18;403.60;;;380.13;;
21099;SDS011;10708;50.824;4.408;2023-05-29T07:17:21;932.75;;;458.15;;
21099;SDS011;10708;50.824;4.408;2023-05-29T07:22:23;176.98;;;166.82;;
21099;SDS011;10708;50.824;4.408;2023-05-29T07:27:25;447.42;;;419.85;;
21099;SDS011;10708;50.824;4.408;2023-05-29T07:32:28;422.88;;;397.77;;
21099;SDS011;10708;50.824;4.408;2023-05-29T07:37:30;506.98;;;474.85;;
21099;SDS011;10708;50.824;4.408;2023-05-29T07:42:33;288.48;;;272.55;;
21099;SDS011;10708;50.824;4.408;2023-05-29T07:47:36;417.80;;;393.40;;
21099;SDS011;10708;50.824;4.408;2023-05-29T07:52:38;511.65;;;476.48;;
21099;SDS011;10708;50.824;4.408;2023-05-29T07:57:40;421.38;;;395.20;;
21099;SDS011;10708;50.824;4.408;2023-05-29T08:02:43;384.13;;;361.70;;
21099;SDS011;10708;50.824;4.408;2023-05-29T08:07:46;690.97;;;640.45;;
21099;SDS011;10708;50.824;4.408;2023-05-29T08:12:48;616.83;;;572.80;;
21099;SDS011;10708;50.824;4.408;2023-05-29T08:17:52;813.08;;;750.08;;
21099;SDS011;10708;50.824;4.408;2023-05-29T08:22:54;574.03;;;528.00;;
21099;SDS011;10708;50.824;4.408;2023-05-29T08:27:56;910.28;;;830.30;;
21099;SDS011;10708;50.824;4.408;2023-05-29T08:33:00;611.83;;;565.47;;
21099;SDS011;10708;50.824;4.408;2023-05-29T08:38:05;395.73;;;371.45;;
21099;SDS011;10708;50.824;4.408;2023-05-29T08:43:08;338.10;;;318.90;;
21099;SDS011;10708;50.824;4.408;2023-05-29T08:48:18;391.08;;;366.30;;
21099;SDS011;10708;50.824;4.408;2023-05-29T08:53:20;476.67;;;444.80;;
21099;SDS011;10708;50.824;4.408;2023-05-29T08:58:22;590.92;;;547.50;;
21099;SDS011;10708;50.824;4.408;2023-05-29T09:03:26;518.53;;;483.63;;
21099;SDS011;10708;50.824;4.408;2023-05-29T09:08:28;438.35;;;409.58;;
21099;SDS011;10708;50.824;4.408;2023-05-29T09:13:33;433.80;;;406.55;;
21099;SDS011;10708;50.824;4.408;2023-05-29T09:18:37;551.65;;;514.85;;
21099;SDS011;10708;50.824;4.408;2023-05-29T09:23:39;424.58;;;397.83;;
21099;SDS011;10708;50.824;4.408;2023-05-29T09:28:41;523.30;;;488.08;;
21099;SDS011;10708;50.824;4.408;2023-05-29T09:33:48;421.48;;;394.45;;
21099;SDS011;10708;50.824;4.408;2023-05-29T09:38:50;616.92;;;572.70;;
21099;SDS011;10708;50.824;4.408;2023-05-29T09:43:52;763.58;;;681.55;;
21099;SDS011;10708;50.824;4.408;2023-05-29T09:48:58;741.22;;;684.85;;
21099;SDS011;10708;50.824;4.408;2023-05-29T09:54:12;749.88;;;691.67;;
21099;SDS011;10708;50.824;4.408;2023-05-29T09:59:15;791.97;;;729.65;;
21099;SDS011;10708;50.824;4.408;2023-05-29T10:04:19;753.83;;;695.70;;
21099;SDS011;10708;50.824;4.408;2023-05-29T10:09:24;758.60;;;701.47;;
21099;SDS011;10708;50.824;4.408;2023-05-29T10:14:28;747.33;;;691.65;;
21099;SDS011;10708;50.824;4.408;2023-05-29T10:19:36;682.33;;;626.28;;
21099;SDS011;10708;50.824;4.408;2023-05-29T10:24:39;587.80;;;547.25;;
21099;SDS011;10708;50.824;4.408;2023-05-29T10:29:42;649.20;;;604.40;;
21099;SDS011;10708;50.824;4.408;2023-05-29T10:34:58;578.08;;;539.55;;
21099;SDS011;10708;50.824;4.408;2023-05-29T10:40:22;534.22;;;498.30;;
21099;SDS011;10708;50.824;4.408;2023-05-29T10:50:54;493.83;;;446.60;;
21099;SDS011;10708;50.824;4.408;2023-05-29T10:55:58;465.65;;;435.98;;
21099;SDS011;10708;50.824;4.408;2023-05-29T11:01:01;251.93;;;232.82;;
21099;SDS011;10708;50.824;4.408;2023-05-29T11:06:05;277.58;;;259.92;;
21099;SDS011;10708;50.824;4.408;2023-05-29T11:11:11;365.60;;;344.08;;
21099;SDS011;10708;50.824;4.408;2023-05-29T11:16:14;83.53;;;78.72;;
21099;SDS011;10708;50.824;4.408;2023-05-29T11:21:48;145.63;;;137.55;;
21099;SDS011;10708;50.824;4.408;2023-05-29T11:26:57;87.65;;;82.00;;
21099;SDS011;10708;50.824;4.408;2023-05-29T11:32:06;565.42;;;233.38;;
21099;SDS011;10708;50.824;4.408;2023-05-29T11:37:14;1999.90;;;996.37;;
21099;SDS011;10708;50.824;4.408;2023-05-29T11:42:16;1999.90;;;790.80;;
21099;SDS011;10708;50.824;4.408;2023-05-29T11:47:18;1999.90;;;787.47;;
21099;SDS011;10708;50.824;4.408;2023-05-29T11:52:24;1999.90;;;799.80;;
21099;SDS011;10708;50.824;4.408;2023-05-29T11:57:26;1999.90;;;755.77;;
21099;SDS011;10708;50.824;4.408;2023-05-29T12:02:30;1999.90;;;856.43;;
21099;SDS011;10708;50.824;4.408;2023-05-29T12:07:34;1999.90;;;584.80;;
21099;SDS011;10708;50.824;4.408;2023-05-29T12:12:36;1999.90;;;828.97;;
21099;SDS011;10708;50.824;4.408;2023-05-29T12:17:41;1999.90;;;845.87;;
21099;SDS011;10708;50.824;4.408;2023-05-29T12:22:45;1999.90;;;918.03;;
21099;SDS011;10708;50.824;4.408;2023-05-29T12:27:48;1999.90;;;999.90;;
21099;SDS011;10708;50.824;4.408;2023-05-29T12:32:51;1999.90;;;999.90;;
21099;SDS011;10708;50.824;4.408;2023-05-29T12:37:55;1999.90;;;896.90;;
21099;SDS011;10708;50.824;4.408;2023-05-29T12:43:00;1999.90;;;871.60;;
21099;SDS011;10708;50.824;4.408;2023-05-29T12:48:03;1999.90;;;885.87;;
21099;SDS011;10708;50.824;4.408;2023-05-29T12:53:08;1999.90;;;999.90;;
21099;SDS011;10708;50.824;4.408;2023-05-29T12:58:12;1999.90;;;837.00;;
21099;SDS011;10708;50.824;4.408;2023-05-29T13:03:15;1999.90;;;890.30;;
21099;SDS011;10708;50.824;4.408;2023-05-29T13:08:20;1999.90;;;872.43;;
21099;SDS011;10708;50.824;4.408;2023-05-29T13:18:33;1999.90;;;613.33;;
21099;SDS011;10708;50.824;4.408;2023-05-29T13:23:36;1999.90;;;790.03;;
21099;SDS011;10708;50.824;4.408;2023-05-29T13:28:38;1999.90;;;886.53;;
21099;SDS011;10708;50.824;4.408;2023-05-29T13:33:41;1999.90;;;916.67;;
21099;SDS011;10708;50.824;4.408;2023-05-29T13:38:44;1999.90;;;631.00;;
21099;SDS011;10708;50.824;4.408;2023-05-29T13:43:47;1999.90;;;880.20;;
21099;SDS011;10708;50.824;4.408;2023-05-29T13:48:49;1999.90;;;914.50;;
21099;SDS011;10708;50.824;4.408;2023-05-29T13:53:53;1999.90;;;876.77;;
21099;SDS011;10708;50.824;4.408;2023-05-29T13:58:56;1999.90;;;792.67;;
21099;SDS011;10708;50.824;4.408;2023-05-29T14:04:10;1999.90;;;918.40;;
21099;SDS011;10708;50.824;4.408;2023-05-29T14:24:42;1999.90;;;926.87;;
21099;SDS011;10708;50.824;4.408;2023-05-29T14:29:47;1999.90;;;999.90;;
21099;SDS011;10708;50.824;4.408;2023-05-29T14:34:49;1999.90;;;901.00;;
21099;SDS011;10708;50.824;4.408;2023-05-29T14:39:54;1999.90;;;554.37;;
21099;SDS011;10708;50.824;4.408;2023-05-29T14:44:57;1999.90;;;626.13;;
21099;SDS011;10708;50.824;4.408;2023-05-29T14:55:17;1999.90;;;663.27;;
21099;SDS011;10708;50.824;4.408;2023-05-29T15:00:19;1999.90;;;888.93;;
21099;SDS011;10708;50.824;4.408;2023-05-29T15:05:22;1999.90;;;921.13;;
21099;SDS011;10708;50.824;4.408;2023-05-29T15:10:26;1999.90;;;936.77;;
21099;SDS011;10708;50.824;4.408;2023-05-29T15:15:28;1999.90;;;964.77;;
21099;SDS011;10708;50.824;4.408;2023-05-29T15:20:30;1999.90;;;626.47;;
21099;SDS011;10708;50.824;4.408;2023-05-29T15:25:34;1999.90;;;922.43;;
21099;SDS011;10708;50.824;4.408;2023-05-29T15:30:36;1999.90;;;945.93;;
21099;SDS011;10708;50.824;4.408;2023-05-29T15:35:38;1999.90;;;999.90;;
21099;SDS011;10708;50.824;4.408;2023-05-29T15:40:42;1999.90;;;979.47;;
21099;SDS011;10708;50.824;4.408;2023-05-29T15:45:45;1999.90;;;655.63;;
21099;SDS011;10708;50.824;4.408;2023-05-29T15:50:48;1999.90;;;911.20;;
21099;SDS011;10708;50.824;4.408;2023-05-29T15:55:52;1999.90;;;856.77;;
21099;SDS011;10708;50.824;4.408;2023-05-29T16:00:54;1999.90;;;899.77;;
21099;SDS011;10708;50.824;4.408;2023-05-29T16:05:56;1999.90;;;912.40;;
21099;SDS011;10708;50.824;4.408;2023-05-29T16:11:00;1999.90;;;893.77;;
21099;SDS011;10708;50.824;4.408;2023-05-29T16:16:03;1999.90;;;563.13;;
21099;SDS011;10708;50.824;4.408;2023-05-29T16:21:06;1999.90;;;957.33;;
21099;SDS011;10708;50.824;4.408;2023-05-29T16:26:09;1999.90;;;632.63;;
21099;SDS011;10708;50.824;4.408;2023-05-29T16:31:11;1999.90;;;864.17;;
21099;SDS011;10708;50.824;4.408;2023-05-29T16:36:13;1999.90;;;910.43;;
21099;SDS011;10708;50.824;4.408;2023-05-29T16:41:17;1999.90;;;955.33;;
21099;SDS011;10708;50.824;4.408;2023-05-29T16:46:19;1999.90;;;924.63;;
21099;SDS011;10708;50.824;4.408;2023-05-29T16:51:22;1999.90;;;964.87;;
21099;SDS011;10708;50.824;4.408;2023-05-29T16:56:25;1999.90;;;974.80;;
21099;SDS011;10708;50.824;4.408;2023-05-29T17:01:27;1999.90;;;973.30;;
21099;SDS011;10708;50.824;4.408;2023-05-29T17:06:30;1999.90;;;986.40;;
21099;SDS011;10708;50.824;4.408;2023-05-29T17:11:34;1999.90;;;587.57;;
21099;SDS011;10708;50.824;4.408;2023-05-29T17:16:36;1999.90;;;994.27;;
21099;SDS011;10708;50.824;4.408;2023-05-29T17:21:38;1999.90;;;976.73;;
21099;SDS011;10708;50.824;4.408;2023-05-29T17:26:48;1999.90;;;978.87;;
21099;SDS011;10708;50.824;4.408;2023-05-29T17:31:51;1999.90;;;967.90;;
21099;SDS011;10708;50.824;4.408;2023-05-29T17:36:53;1999.90;;;970.90;;
21099;SDS011;10708;50.824;4.408;2023-05-29T17:41:56;1999.90;;;972.23;;
21099;SDS011;10708;50.824;4.408;2023-05-29T17:46:58;1999.90;;;869.03;;
21099;SDS011;10708;50.824;4.408;2023-05-29T17:52:00;1999.90;;;968.77;;
21099;SDS011;10708;50.824;4.408;2023-05-29T17:57:04;1999.90;;;586.30;;
21099;SDS011;10708;50.824;4.408;2023-05-29T18:07:17;1999.90;;;879.47;;
21099;SDS011;10708;50.824;4.408;2023-05-29T18:12:21;1999.90;;;874.40;;
21099;SDS011;10708;50.824;4.408;2023-05-29T18:17:23;1999.90;;;957.00;;
21099;SDS011;10708;50.824;4.408;2023-05-29T18:22:25;1999.90;;;940.00;;
21099;SDS011;10708;50.824;4.408;2023-05-29T18:27:28;1999.90;;;914.93;;
21099;SDS011;10708;50.824;4.408;2023-05-29T18:32:32;1999.90;;;886.27;;
21099;SDS011;10708;50.824;4.408;2023-05-29T18:37:36;1999.90;;;938.20;;
21099;SDS011;10708;50.824;4.408;2023-05-29T18:42:39;1999.90;;;901.80;;
21099;SDS011;10708;50.824;4.408;2023-05-29T18:47:41;1999.90;;;901.13;;
21099;SDS011;10708;50.824;4.408;2023-05-29T18:52:43;1999.90;;;951.27;;
21099;SDS011;10708;50.824;4.408;2023-05-29T18:57:47;1999.90;;;836.97;;
21099;SDS011;10708;50.824;4.408;2023-05-29T19:02:49;1999.90;;;938.57;;
21099;SDS011;10708;50.824;4.408;2023-05-29T19:07:52;1999.90;;;908.90;;
21099;SDS011;10708;50.824;4.408;2023-05-29T19:12:56;1999.90;;;821.77;;
21099;SDS011;10708;50.824;4.408;2023-05-29T19:17:58;1999.90;;;999.90;;
21099;SDS011;10708;50.824;4.408;2023-05-29T19:23:00;1999.90;;;891.00;;
21099;SDS011;10708;50.824;4.408;2023-05-29T19:28:05;1999.90;;;918.73;;
21099;SDS011;10708;50.824;4.408;2023-05-29T19:33:09;1999.90;;;865.30;;
21099;SDS011;10708;50.824;4.408;2023-05-29T19:38:11;1999.90;;;903.00;;
21099;SDS011;10708;50.824;4.408;2023-05-29T19:43:19;1999.90;;;609.27;;
21099;SDS011;10708;50.824;4.408;2023-05-29T19:48:22;1999.90;;;903.00;;
21099;SDS011;10708;50.824;4.408;2023-05-29T19:53:24;1999.90;;;857.80;;
21099;SDS011;10708;50.824;4.408;2023-05-29T19:58:28;1999.90;;;568.70;;
21099;SDS011;10708;50.824;4.408;2023-05-29T20:03:32;1999.90;;;896.00;;
21099;SDS011;10708;50.824;4.408;2023-05-29T20:08:34;1999.90;;;847.10;;
21099;SDS011;10708;50.824;4.408;2023-05-29T20:13:39;1999.90;;;640.37;;
21099;SDS011;10708;50.824;4.408;2023-05-29T20:18:42;1999.90;;;892.97;;
21099;SDS011;10708;50.824;4.408;2023-05-29T20:23:45;1999.90;;;912.73;;
21099;SDS011;10708;50.824;4.408;2023-05-29T20:28:51;1999.90;;;570.07;;
21099;SDS011;10708;50.824;4.408;2023-05-29T20:33:54;201.45;;;190.05;;
21099;SDS011;10708;50.824;4.408;2023-05-29T20:38:55;226.45;;;214.20;;
21099;SDS011;10708;50.824;4.408;2023-05-29T20:44:00;233.25;;;220.38;;
21099;SDS011;10708;50.824;4.408;2023-05-29T20:49:05;230.40;;;218.02;;
21099;SDS011;10708;50.824;4.408;2023-05-29T20:54:07;210.25;;;196.82;;
21099;SDS011;10708;50.824;4.408;2023-05-29T20:59:11;227.95;;;215.23;;
21099;SDS011;10708;50.824;4.408;2023-05-29T21:04:13;316.90;;;294.00;;
21099;SDS011;10708;50.824;4.408;2023-05-29T21:09:15;292.48;;;276.02;;
21099;SDS011;10708;50.824;4.408;2023-05-29T21:14:19;92.80;;;86.95;;
21099;SDS011;10708;50.824;4.408;2023-05-29T21:19:21;80.72;;;75.82;;
21099;SDS011;10708;50.824;4.408;2023-05-29T21:24:23;157.23;;;148.25;;
21099;SDS011;10708;50.824;4.408;2023-05-29T21:29:30;260.75;;;246.98;;
21099;SDS011;10708;50.824;4.408;2023-05-29T21:34:32;109.05;;;102.25;;
21099;SDS011;10708;50.824;4.408;2023-05-29T21:39:34;143.82;;;135.30;;
21099;SDS011;10708;50.824;4.408;2023-05-29T21:44:38;118.72;;;111.63;;
21099;SDS011;10708;50.824;4.408;2023-05-29T21:49:40;123.55;;;115.85;;
21099;SDS011;10708;50.824;4.408;2023-05-29T21:54:42;120.80;;;113.75;;
21099;SDS011;10708;50.824;4.408;2023-05-29T21:59:47;194.50;;;183.25;;
21099;SDS011;10708;50.824;4.408;2023-05-29T22:04:49;62.70;;;58.47;;
21099;SDS011;10708;50.824;4.408;2023-05-29T22:09:51;69.32;;;65.35;;
21099;SDS011;10708;50.824;4.408;2023-05-29T22:14:54;113.22;;;105.95;;
21099;SDS011;10708;50.824;4.408;2023-05-29T22:19:56;196.85;;;181.57;;
21099;SDS011;10708;50.824;4.408;2023-05-29T22:24:58;597.50;;;186.93;;
21099;SDS011;10708;50.824;4.408;2023-05-29T22:30:02;93.10;;;87.45;;
21099;SDS011;10708;50.824;4.408;2023-05-29T22:35:06;45.38;;;42.47;;
21099;SDS011;10708;50.824;4.408;2023-05-29T22:40:10;81.10;;;76.10;;
21099;SDS011;10708;50.824;4.408;2023-05-29T22:45:16;38.57;;;35.83;;
21099;SDS011;10708;50.824;4.408;2023-05-29T22:50:18;51.80;;;47.97;;
21099;SDS011;10708;50.824;4.408;2023-05-29T22:55:20;39.93;;;36.87;;
21099;SDS011;10708;50.824;4.408;2023-05-29T23:00:26;54.20;;;50.47;;
21099;SDS011;10708;50.824;4.408;2023-05-29T23:05:28;41.83;;;38.17;;
21099;SDS011;10708;50.824;4.408;2023-05-29T23:10:31;31.20;;;28.30;;
21099;SDS011;10708;50.824;4.408;2023-05-29T23:15:34;53.37;;;49.73;;
21099;SDS011;10708;50.824;4.408;2023-05-29T23:20:36;79.87;;;73.13;;
21099;SDS011;10708;50.824;4.408;2023-05-29T23:25:38;70.17;;;65.63;;
21099;SDS011;10708;50.824;4.408;2023-05-29T23:30:42;48.03;;;44.93;;
21099;SDS011;10708;50.824;4.408;2023-05-29T23:35:44;61.57;;;57.77;;
21099;SDS011;10708;50.824;4.408;2023-05-29T23:40:46;49.90;;;46.57;;
21099;SDS011;10708;50.824;4.408;2023-05-29T23:45:49;78.77;;;74.27;;
21099;SDS011;10708;50.824;4.408;2023-05-29T23:50:51;119.07;;;111.87;;
21099;SDS011;10708;50.824;4.408;2023-05-29T23:55:53;50.53;;;47.40;;
